createdAt,value
2023-01-13T00:00:47.350Z,99214.81
2023-01-13T00:03:14.601Z,99218.31
2023-01-13T00:05:42.011Z,99215.69
2023-01-13T00:08:09.298Z,99211.19
2023-01-13T00:10:37.132Z,99223.25
2023-01-13T00:13:05.805Z,99218.00
2023-01-13T00:15:34.339Z,99222.34
2023-01-13T00:18:01.809Z,99221.47
2023-01-13T00:20:35.286Z,99214.44
2023-01-13T00:23:04.752Z,99215.22
2023-01-13T00:25:32.243Z,99218.72
2023-01-13T00:27:59.673Z,99220.44
2023-01-13T00:30:27.061Z,99222.47
2023-01-13T00:32:56.650Z,99228.59
2023-01-13T00:35:24.029Z,99213.81
2023-01-13T00:37:51.591Z,99214.75
2023-01-13T00:40:20.107Z,99203.34
2023-01-13T00:43:07.828Z,99200.78
2023-01-13T00:45:35.415Z,99199.06
2023-01-13T00:48:02.888Z,99197.13
2023-01-13T00:50:32.817Z,99204.06
2023-01-13T00:53:02.894Z,99203.09
2023-01-13T00:55:35.943Z,99200.31
2023-01-13T00:58:04.525Z,99210.03
2023-01-13T01:00:33.610Z,99208.41
2023-01-13T01:03:01.010Z,99205.69
2023-01-13T01:05:30.549Z,99205.69
2023-01-13T01:07:57.859Z,99204.94
2023-01-13T01:10:25.739Z,99199.81
2023-01-13T01:12:53.298Z,99212.13
2023-01-13T01:15:20.797Z,99197.31
2023-01-13T01:17:49.166Z,99190.34
2023-01-13T01:20:17.888Z,99191.28
2023-01-13T01:22:45.140Z,99189.59
2023-01-13T01:25:12.650Z,99184.34
2023-01-13T01:27:40.091Z,99188.78
2023-01-13T01:30:10.009Z,99186.97
2023-01-13T01:32:37.660Z,99185.97
2023-01-13T01:35:05.427Z,99178.13
2023-01-13T01:37:34.008Z,99176.47
2023-01-13T01:40:01.519Z,99179.00
2023-01-13T01:42:48.349Z,99174.66
2023-01-13T01:45:21.502Z,99168.50
2023-01-13T01:47:59.901Z,99158.06
2023-01-13T01:50:28.655Z,99156.34
2023-01-13T01:53:07.599Z,99158.94
2023-01-13T01:55:39.905Z,99161.56
2023-01-13T01:58:22.988Z,99154.56
2023-01-13T02:00:50.321Z,99159.91
2023-01-13T02:03:18.128Z,99152.06
2023-01-13T02:05:45.853Z,99141.53
2023-01-13T02:08:14.596Z,99142.97
2023-01-13T02:10:46.461Z,99135.81
2023-01-13T02:13:15.014Z,99126.13
2023-01-13T02:16:14.103Z,99116.31
2023-01-13T02:19:02.672Z,99124.13
2023-01-13T02:21:59.577Z,99118.88
2023-01-13T02:25:10.692Z,99118.56
2023-01-13T02:27:49.957Z,99106.03
2023-01-13T02:31:00.029Z,99099.69
2023-01-13T02:34:11.161Z,99091.75
2023-01-13T02:36:54.108Z,99090.69
2023-01-13T02:39:33.280Z,99100.22
2023-01-13T02:42:32.849Z,99095.75
2023-01-13T02:45:26.737Z,99091.31
2023-01-13T02:47:57.347Z,99094.84
2023-01-13T02:50:32.817Z,99088.69
2023-01-13T02:53:06.365Z,99098.38
2023-01-13T02:55:39.311Z,99096.59
2023-01-13T02:58:10.850Z,99095.75
2023-01-13T03:00:46.333Z,99093.03
2023-01-13T03:03:14.135Z,99090.59
2023-01-13T03:05:44.343Z,99075.94
2023-01-13T03:08:23.711Z,99085.63
2023-01-13T03:11:08.003Z,99076.13
2023-01-13T03:13:47.503Z,99082.31
2023-01-13T03:16:30.327Z,99075.25
2023-01-13T03:19:48.095Z,99084.84
2023-01-13T03:22:16.687Z,99079.75
2023-01-13T03:24:53.795Z,99091.91
2023-01-13T03:27:33.128Z,99084.75
2023-01-13T03:30:43.465Z,99077.69
2023-01-13T03:33:41.963Z,99085.59
2023-01-13T03:36:13.197Z,99075.09
2023-01-13T03:38:44.853Z,99082.13
2023-01-13T03:41:43.827Z,99087.25
2023-01-13T03:44:28.395Z,99084.66
2023-01-13T03:47:29.752Z,99077.72
2023-01-13T03:50:00.093Z,99081.34
2023-01-13T03:52:38.379Z,99070.94
2023-01-13T03:55:18.936Z,99063.22
2023-01-13T03:57:55.160Z,99071.09
2023-01-13T04:00:31.852Z,99083.28
2023-01-13T04:03:05.349Z,99082.41
2023-01-13T04:05:36.702Z,99082.63
2023-01-13T04:08:21.376Z,99081.78
2023-01-13T04:11:14.978Z,99075.59
2023-01-13T04:13:45.396Z,99083.50
2023-01-13T04:16:18.779Z,99086.81
2023-01-13T04:18:46.112Z,99077.22
2023-01-13T04:21:13.714Z,99086.59
2023-01-13T04:23:41.047Z,99080.53
2023-01-13T04:26:08.526Z,99081.44
2023-01-13T04:28:36.047Z,99076.28
2023-01-13T04:31:05.559Z,99068.56
2023-01-13T04:33:34.045Z,99067.72
2023-01-13T04:36:01.424Z,99078.34
2023-01-13T04:38:28.956Z,99069.75
2023-01-13T04:40:56.315Z,99060.84
2023-01-13T04:43:23.767Z,99061.78
2023-01-13T04:45:51.758Z,99066.06
2023-01-13T04:48:19.454Z,99074.81
2023-01-13T04:50:53.841Z,99070.25
2023-01-13T04:53:22.277Z,99075.41
2023-01-13T04:55:49.986Z,99067.47
2023-01-13T04:58:24.996Z,99069.00
2023-01-13T05:00:52.625Z,99076.84
2023-01-13T05:03:19.733Z,99076.78
2023-01-13T05:05:51.832Z,99065.34
2023-01-13T05:08:19.410Z,99070.59
2023-01-13T05:10:46.904Z,99064.56
2023-01-13T05:13:32.918Z,99068.97
2023-01-13T05:16:25.415Z,99058.38
2023-01-13T05:18:53.789Z,99055.16
2023-01-13T05:21:41.271Z,99055.84
2023-01-13T05:24:28.436Z,99062.84
2023-01-13T05:26:55.519Z,99051.31
2023-01-13T05:29:23.999Z,99050.47
2023-01-13T05:31:51.459Z,99054.72
2023-01-13T05:34:18.944Z,99059.13
2023-01-13T05:36:46.340Z,99065.34
2023-01-13T05:39:13.922Z,99067.22
2023-01-13T05:41:59.815Z,99057.63
2023-01-13T05:44:27.244Z,99064.66
2023-01-13T05:46:54.686Z,99055.84
2023-01-13T05:49:22.088Z,99057.53
2023-01-13T05:51:49.650Z,99065.34
2023-01-13T05:54:23.197Z,99061.00
2023-01-13T05:56:50.436Z,99061.94
2023-01-13T05:59:19.582Z,99057.63
2023-01-13T06:01:47.080Z,99064.72
2023-01-13T06:04:14.191Z,99063.81
2023-01-13T06:06:43.450Z,99067.38
2023-01-13T06:09:10.928Z,99067.28
2023-01-13T06:11:38.415Z,99068.22
2023-01-13T06:14:05.961Z,99067.22
2023-01-13T06:16:33.398Z,99070.72
2023-01-13T06:19:00.818Z,99077.81
2023-01-13T06:21:28.311Z,99074.25
2023-01-13T06:23:58.941Z,99082.09
2023-01-13T06:26:29.449Z,99078.56
2023-01-13T06:28:56.760Z,99080.38
2023-01-13T06:31:25.421Z,99077.81
2023-01-13T06:34:01.053Z,99078.72
2023-01-13T06:36:35.927Z,99079.50
2023-01-13T06:39:05.187Z,99077.13
2023-01-13T06:41:53.545Z,99077.22
2023-01-13T06:44:23.369Z,99074.25
2023-01-13T06:46:52.554Z,99077.91
2023-01-13T06:49:21.596Z,99074.50
2023-01-13T06:51:55.103Z,99076.44
2023-01-13T06:54:22.532Z,99079.84
2023-01-13T06:56:50.017Z,99085.19
2023-01-13T06:59:17.461Z,99087.03
2023-01-13T07:01:45.093Z,99087.03
2023-01-13T07:04:12.236Z,99080.16
2023-01-13T07:06:40.340Z,99083.66
2023-01-13T07:09:07.806Z,99081.19
2023-01-13T07:11:35.282Z,99089.06
2023-01-13T07:14:21.122Z,99076.94
2023-01-13T07:16:48.670Z,99083.91
2023-01-13T07:19:23.502Z,99094.25
2023-01-13T07:21:56.854Z,99078.34
2023-01-13T07:24:24.332Z,99087.81
2023-01-13T07:26:52.721Z,99082.41
2023-01-13T07:29:22.236Z,99087.41
2023-01-13T07:31:50.433Z,99088.91
2023-01-13T07:34:18.863Z,99090.59
2023-01-13T07:36:46.206Z,99093.03
2023-01-13T07:39:13.666Z,99082.63
2023-01-13T07:41:59.494Z,99073.50
2023-01-13T07:44:28.020Z,99082.31
2023-01-13T07:46:57.572Z,99078.75
2023-01-13T07:49:24.868Z,99079.28
2023-01-13T07:51:52.392Z,99086.13
2023-01-13T07:54:25.499Z,99089.47
2023-01-13T07:56:59.090Z,99096.16
2023-01-13T07:59:26.652Z,99099.28
2023-01-13T08:01:55.288Z,99106.22
2023-01-13T08:04:27.199Z,99098.22
2023-01-13T08:06:54.588Z,99105.19
2023-01-13T08:09:21.615Z,99107.72
2023-01-13T08:12:08.927Z,99112.72
2023-01-13T08:14:36.440Z,99100.31
2023-01-13T08:17:04.124Z,99091.50
2023-01-13T08:19:32.394Z,99093.84
2023-01-13T08:21:59.401Z,99093.63
2023-01-13T08:24:26.901Z,99102.06
2023-01-13T08:26:54.242Z,99090.44
2023-01-13T08:29:21.646Z,99104.41
2023-01-13T08:31:48.777Z,99101.59
2023-01-13T08:34:16.043Z,99096.19
2023-01-13T08:36:43.052Z,99096.31
2023-01-13T08:39:10.576Z,99104.84
2023-01-13T08:41:56.108Z,99099.75
2023-01-13T08:44:25.569Z,99094.59
2023-01-13T08:46:53.026Z,99091.91
2023-01-13T08:49:20.927Z,99096.44
2023-01-13T08:51:48.938Z,99093.78
2023-01-13T08:54:17.085Z,99093.75
2023-01-13T08:56:46.504Z,99089.47
2023-01-13T08:59:15.380Z,99092.19
2023-01-13T09:01:43.107Z,99096.50
2023-01-13T09:04:22.112Z,99099.63
2023-01-13T09:06:50.191Z,99096.69
2023-01-13T09:09:18.688Z,99095.72
2023-01-13T09:12:08.420Z,99102.44
2023-01-13T09:14:38.964Z,99101.34
2023-01-13T09:17:06.841Z,99104.03
2023-01-13T09:19:34.407Z,99105.00
2023-01-13T09:22:02.030Z,99098.03
2023-01-13T09:24:29.713Z,99097.19
2023-01-13T09:26:56.895Z,99095.31
2023-01-13T09:29:26.057Z,99102.19
2023-01-13T09:31:53.189Z,99097.72
2023-01-13T09:34:39.429Z,99102.13
2023-01-13T09:37:07.904Z,99097.56
2023-01-13T09:39:36.327Z,99103.41
2023-01-13T09:43:02.652Z,99099.84
2023-01-13T09:45:37.738Z,99094.31
2023-01-13T09:48:13.795Z,99103.88
2023-01-13T09:51:10.330Z,99088.06
2023-01-13T09:54:06.397Z,99078.22
2023-01-13T09:56:33.600Z,99068.34
2023-01-13T09:59:00.788Z,99069.84
2023-01-13T10:01:33.487Z,99067.81
2023-01-13T10:04:06.139Z,99072.69
2023-01-13T10:06:39.055Z,99076.56
2023-01-13T10:09:06.627Z,99075.84
2023-01-13T10:11:59.330Z,99068.75
2023-01-13T10:14:40.955Z,99076.69
2023-01-13T10:17:19.547Z,99068.91
2023-01-13T10:20:13.191Z,99075.00
2023-01-13T10:22:42.492Z,99068.66
2023-01-13T10:25:28.017Z,99070.44
2023-01-13T10:28:02.420Z,99064.97
2023-01-13T10:30:35.076Z,99067.47
2023-01-13T10:33:20.992Z,99075.25
2023-01-13T10:35:56.231Z,99067.84
2023-01-13T10:38:40.357Z,99056.88
2023-01-13T10:41:28.148Z,99056.53
2023-01-13T10:44:01.306Z,99060.41
2023-01-13T10:46:34.163Z,99059.19
2023-01-13T10:49:21.232Z,99045.56
2023-01-13T10:51:48.656Z,99041.63
2023-01-13T10:54:25.919Z,99042.47
2023-01-13T10:57:35.995Z,99040.41
2023-01-13T11:00:05.457Z,99040.91
2023-01-13T11:02:39.026Z,99032.34
2023-01-13T11:05:23.179Z,99036.69
2023-01-13T11:07:58.335Z,99035.13
2023-01-13T11:10:28.644Z,99035.22
2023-01-13T11:13:19.393Z,99040.38
2023-01-13T11:16:07.889Z,99025.72
2023-01-13T11:19:02.811Z,99029.97
2023-01-13T11:21:39.370Z,99037.63
2023-01-13T11:24:40.390Z,99027.44
2023-01-13T11:27:22.441Z,99038.09
2023-01-13T11:30:00.588Z,99031.66
2023-01-13T11:32:39.906Z,99034.25
2023-01-13T11:35:20.426Z,99032.59
2023-01-13T11:38:03.391Z,99044.34
2023-01-13T11:41:25.249Z,99028.19
2023-01-13T11:44:00.699Z,99020.84
2023-01-13T11:46:29.052Z,99018.28
2023-01-13T11:48:57.179Z,99021.84
2023-01-13T11:51:30.621Z,99018.56
2023-01-13T11:54:24.665Z,99015.94
2023-01-13T11:57:29.291Z,99022.88
2023-01-13T12:00:15.586Z,99016.88
2023-01-13T12:02:48.560Z,99017.16
2023-01-13T12:05:40.150Z,99010.16
2023-01-13T12:08:21.176Z,99003.94
2023-01-13T12:11:00.297Z,99008.75
2023-01-13T12:13:59.043Z,98998.41
2023-01-13T12:16:33.175Z,98994.13
2023-01-13T12:19:08.315Z,99002.19
2023-01-13T12:21:59.601Z,98996.97
2023-01-13T12:24:40.219Z,98999.63
2023-01-13T12:27:42.973Z,98998.31
2023-01-13T12:30:43.758Z,98991.47
2023-01-13T12:33:29.653Z,98991.81
2023-01-13T12:36:07.147Z,98995.91
2023-01-13T12:38:46.349Z,98986.28
2023-01-13T12:41:27.701Z,98987.28
2023-01-13T12:44:13.598Z,98981.38
2023-01-13T12:46:54.686Z,98985.59
2023-01-13T12:49:30.193Z,98989.31
2023-01-13T12:52:16.437Z,98984.13
2023-01-13T12:54:45.641Z,98988.25
2023-01-13T12:57:23.015Z,98985.47
2023-01-13T13:00:12.014Z,98989.56
2023-01-13T13:02:41.971Z,98985.13
2023-01-13T13:05:16.535Z,98989.06
2023-01-13T13:07:46.403Z,98984.94
2023-01-13T13:10:36.380Z,98971.25
2023-01-13T13:13:42.726Z,98983.50
2023-01-13T13:16:29.672Z,98988.50
2023-01-13T13:19:18.480Z,98988.34
2023-01-13T13:22:13.654Z,98995.34
2023-01-13T13:24:51.420Z,99002.47
2023-01-13T13:27:41.501Z,98997.19
2023-01-13T13:30:28.897Z,98995.34
2023-01-13T13:33:36.933Z,98992.91
2023-01-13T13:36:35.181Z,98987.78
2023-01-13T13:39:46.313Z,98989.84
2023-01-13T13:42:55.705Z,98990.84
2023-01-13T13:45:45.141Z,98994.34
2023-01-13T13:48:34.300Z,99016.38
2023-01-13T13:51:18.083Z,99016.47
2023-01-13T13:53:46.476Z,99015.44
2023-01-13T13:56:21.116Z,99005.06
2023-01-13T13:58:49.913Z,99020.72
2023-01-13T14:01:25.651Z,99014.88
2023-01-13T14:04:12.870Z,99014.81
2023-01-13T14:07:05.241Z,99016.59
2023-01-13T14:09:45.141Z,99011.41
2023-01-13T14:12:21.937Z,99013.88
2023-01-13T14:14:50.318Z,99019.16
2023-01-13T14:17:30.145Z,99025.34
2023-01-13T14:20:03.001Z,99028.00
2023-01-13T14:22:30.648Z,99027.56
2023-01-13T14:25:02.176Z,99026.72
2023-01-13T14:27:31.584Z,99035.34
2023-01-13T14:30:03.827Z,99030.28
2023-01-13T14:32:37.984Z,99019.31
2023-01-13T14:35:09.760Z,99025.69
2023-01-13T14:37:42.422Z,99034.34
2023-01-13T14:40:48.291Z,99026.56
2023-01-13T14:43:18.926Z,99034.56
2023-01-13T14:45:58.871Z,99040.53
2023-01-13T14:48:36.260Z,99036.19
2023-01-13T14:51:13.275Z,99050.97
2023-01-13T14:53:46.475Z,99050.97
2023-01-13T14:56:51.084Z,99053.66
2023-01-13T14:59:46.685Z,99050.50
2023-01-13T15:02:34.562Z,99041.59
2023-01-13T15:05:20.155Z,99050.63
2023-01-13T15:08:00.233Z,99044.66
2023-01-13T15:10:29.427Z,99043.22
2023-01-13T15:12:59.486Z,99039.78
2023-01-13T15:15:33.240Z,99037.22
2023-01-13T15:18:02.343Z,99034.50
2023-01-13T15:20:29.771Z,99033.13
2023-01-13T15:23:01.637Z,99041.66
2023-01-13T15:25:38.755Z,99052.84
2023-01-13T15:28:08.111Z,99043.22
2023-01-13T15:30:36.290Z,99053.59
2023-01-13T15:33:13.345Z,99056.94
2023-01-13T15:35:44.874Z,99058.75
2023-01-13T15:38:15.748Z,99057.06
2023-01-13T15:40:45.143Z,99058.19
2023-01-13T15:43:36.395Z,99052.97
2023-01-13T15:46:30.538Z,99071.50
2023-01-13T15:48:58.055Z,99068.16
2023-01-13T15:51:27.107Z,99073.66
2023-01-13T15:53:54.589Z,99077.97
2023-01-13T15:56:26.935Z,99075.66
2023-01-13T15:58:54.285Z,99070.38
2023-01-13T16:01:23.622Z,99068.06
2023-01-13T16:03:52.469Z,99073.47
2023-01-13T16:06:30.176Z,99072.75
2023-01-13T16:08:57.708Z,99083.47
2023-01-13T16:11:25.647Z,99080.34
2023-01-13T16:13:52.847Z,99074.22
2023-01-13T16:16:26.732Z,99069.09
2023-01-13T16:18:55.895Z,99083.19
2023-01-13T16:21:25.277Z,99084.28
2023-01-13T16:23:54.583Z,99089.66
2023-01-13T16:26:25.357Z,99094.22
2023-01-13T16:28:55.588Z,99105.56
2023-01-13T16:31:32.126Z,99095.22
2023-01-13T16:34:04.728Z,99093.44
2023-01-13T16:36:35.968Z,99103.97
2023-01-13T16:39:05.353Z,99112.84
2023-01-13T16:41:34.917Z,99119.69
2023-01-13T16:44:06.315Z,99132.16
2023-01-13T16:46:34.034Z,99135.94
2023-01-13T16:49:06.739Z,99145.94
2023-01-13T16:51:34.229Z,99144.34
2023-01-13T16:54:02.463Z,99154.44
2023-01-13T16:56:35.226Z,99156.44
2023-01-13T16:59:09.788Z,99152.16
2023-01-13T17:01:40.270Z,99146.28
2023-01-13T17:04:09.703Z,99145.88
2023-01-13T17:06:53.154Z,99148.03
2023-01-13T17:09:24.251Z,99140.06
2023-01-13T17:11:52.025Z,99133.22
2023-01-13T17:14:23.664Z,99129.56
2023-01-13T17:16:53.348Z,99119.13
2023-01-13T17:19:22.825Z,99133.22
2023-01-13T17:21:51.362Z,99146.44
2023-01-13T17:24:19.005Z,99156.25
2023-01-13T17:26:49.855Z,99145.78
2023-01-13T17:29:20.984Z,99143.81
2023-01-13T17:31:50.085Z,99140.53
2023-01-13T17:34:18.215Z,99136.19
2023-01-13T17:36:45.588Z,99125.00
2023-01-13T17:39:18.324Z,99142.38
2023-01-13T17:41:46.385Z,99145.00
2023-01-13T17:44:19.456Z,99159.06
2023-01-13T17:46:55.331Z,99159.97
2023-01-13T17:49:23.000Z,99160.06
2023-01-13T17:51:51.801Z,99165.56
2023-01-13T17:54:21.156Z,99162.13
2023-01-13T17:56:49.276Z,99163.13
2023-01-13T17:59:23.666Z,99164.16
2023-01-13T18:01:52.645Z,99161.66
2023-01-13T18:04:23.888Z,99160.84
2023-01-13T18:06:52.250Z,99163.31
2023-01-13T18:09:19.933Z,99181.03
2023-01-13T18:11:48.670Z,99185.53
2023-01-13T18:14:18.466Z,99188.09
2023-01-13T18:16:45.891Z,99186.72
2023-01-13T18:19:33.101Z,99192.41
2023-01-13T18:22:19.642Z,99182.09
2023-01-13T18:25:06.784Z,99194.75
2023-01-13T18:27:38.771Z,99195.56
2023-01-13T18:30:10.002Z,99191.00
2023-01-13T18:32:37.785Z,99192.84
2023-01-13T18:35:10.613Z,99201.63
2023-01-13T18:37:48.317Z,99206.69
2023-01-13T18:40:17.178Z,99218.16
2023-01-13T18:42:59.555Z,99206.25
2023-01-13T18:45:30.120Z,99211.47
2023-01-13T18:48:01.052Z,99214.66
2023-01-13T18:50:30.098Z,99216.84
2023-01-13T18:52:58.337Z,99223.88
2023-01-13T18:55:30.792Z,99215.38
2023-01-13T18:57:59.334Z,99224.16
2023-01-13T19:00:28.051Z,99218.47
2023-01-13T19:05:36.234Z,99207.81
2023-01-13T19:08:05.459Z,99219.44
2023-01-13T19:10:34.482Z,99213.34
2023-01-13T19:13:02.487Z,99218.59
2023-01-13T19:15:30.683Z,99220.16
2023-01-13T19:17:58.612Z,99231.16
2023-01-13T19:20:29.224Z,99222.88
2023-01-13T19:22:57.017Z,99225.91
2023-01-13T19:25:24.309Z,99217.94
2023-01-13T19:27:59.207Z,99218.72
2023-01-13T19:30:28.848Z,99217.72
2023-01-13T19:32:57.109Z,99222.63
2023-01-13T19:35:26.912Z,99234.06
2023-01-13T19:37:56.350Z,99219.38
2023-01-13T19:40:24.371Z,99228.81
2023-01-13T19:43:10.207Z,99239.91
2023-01-13T19:45:37.968Z,99238.78
2023-01-13T19:48:06.180Z,99233.19
2023-01-13T19:50:39.434Z,99239.28
2023-01-13T19:53:08.227Z,99254.91
2023-01-13T19:55:49.088Z,99255.84
2023-01-13T19:58:20.631Z,99259.41
2023-01-13T20:00:49.915Z,99259.75
2023-01-13T20:03:21.267Z,99262.41
2023-01-13T20:05:52.837Z,99272.16
2023-01-13T20:08:23.179Z,99278.84
2023-01-13T20:10:51.566Z,99280.66
2023-01-13T20:13:20.629Z,99284.88
2023-01-13T20:15:48.430Z,99278.53
2023-01-13T20:18:16.385Z,99277.84
2023-01-13T20:20:43.850Z,99286.25
2023-01-13T20:23:13.117Z,99296.34
2023-01-13T20:25:43.371Z,99303.47
2023-01-13T20:28:11.231Z,99310.13
2023-01-13T20:30:40.850Z,99310.84
2023-01-13T20:33:09.355Z,99306.59
2023-01-13T20:35:39.181Z,99303.97
2023-01-13T20:38:06.867Z,99303.25
2023-01-13T20:40:34.599Z,99312.97
2023-01-13T20:43:02.639Z,99312.75
2023-01-13T20:45:30.135Z,99308.16
2023-01-13T20:47:57.637Z,99304.41
2023-01-13T20:50:25.458Z,99314.16
2023-01-13T20:52:54.090Z,99315.69
2023-01-13T20:55:24.625Z,99310.34
2023-01-13T20:57:52.276Z,99322.47
2023-01-13T21:00:20.813Z,99327.59
2023-01-13T21:02:49.847Z,99332.75
2023-01-13T21:05:18.787Z,99338.19
2023-01-13T21:07:46.633Z,99336.41
2023-01-13T21:10:20.423Z,99345.22
2023-01-13T21:13:06.963Z,99357.72
2023-01-13T21:15:34.360Z,99359.50
2023-01-13T21:18:26.492Z,99366.28
2023-01-13T21:21:11.794Z,99374.19
2023-01-13T21:23:42.643Z,99378.53
2023-01-13T21:26:11.879Z,99379.63
2023-01-13T21:28:39.566Z,99384.00
2023-01-13T21:31:09.542Z,99392.91
2023-01-13T21:33:37.441Z,99388.66
2023-01-13T21:36:09.100Z,99403.09
2023-01-13T21:38:36.860Z,99404.78
2023-01-13T21:41:07.103Z,99426.69
2023-01-13T21:43:56.881Z,99413.47
2023-01-13T21:46:43.900Z,99404.97
2023-01-13T21:49:11.199Z,99417.75
2023-01-13T21:51:38.541Z,99419.72
2023-01-13T21:54:07.050Z,99424.00
2023-01-13T21:56:36.539Z,99428.03
2023-01-13T21:59:04.014Z,99418.75
2023-01-13T22:01:31.508Z,99429.47
2023-01-13T22:04:13.907Z,99430.47
2023-01-13T22:06:42.284Z,99427.31
2023-01-13T22:09:09.704Z,99426.38
2023-01-13T22:11:44.749Z,99427.63
2023-01-13T22:14:14.235Z,99428.47
2023-01-13T22:16:49.310Z,99426.63
2023-01-13T22:19:18.460Z,99429.47
2023-01-13T22:21:45.903Z,99429.25
2023-01-13T22:24:13.455Z,99427.19
2023-01-13T22:26:40.715Z,99424.44
2023-01-13T22:29:08.253Z,99427.34
2023-01-13T22:31:35.940Z,99435.09
2023-01-13T22:34:04.351Z,99433.44
2023-01-13T22:36:31.701Z,99439.34
2023-01-13T22:39:01.196Z,99430.38
2023-01-13T22:41:28.619Z,99433.84
2023-01-13T22:43:58.111Z,99442.03
2023-01-13T22:46:25.652Z,99441.06
2023-01-13T22:48:54.134Z,99452.56
2023-01-13T22:51:23.059Z,99456.25
2023-01-13T22:53:51.432Z,99463.00
2023-01-13T22:56:22.170Z,99455.03
2023-01-13T22:58:58.498Z,99457.09
2023-01-13T23:01:27.875Z,99451.91
2023-01-13T23:03:55.922Z,99461.06
2023-01-13T23:06:26.511Z,99468.38
2023-01-13T23:08:54.353Z,99464.47
2023-01-13T23:11:26.789Z,99468.31
2023-01-13T23:14:02.537Z,99470.78
2023-01-13T23:16:31.218Z,99471.63
2023-01-13T23:18:58.670Z,99480.59
2023-01-13T23:21:30.863Z,99482.66
2023-01-13T23:23:58.978Z,99485.63
2023-01-13T23:26:28.789Z,99487.03
2023-01-13T23:29:01.902Z,99487.78
2023-01-13T23:31:29.740Z,99486.53
2023-01-13T23:33:59.958Z,99489.22
2023-01-13T23:36:29.653Z,99485.75
2023-01-13T23:39:00.113Z,99488.31
2023-01-13T23:41:28.725Z,99488.25
2023-01-13T23:43:58.608Z,99479.56
2023-01-13T23:46:34.174Z,99480.16
2023-01-13T23:49:03.745Z,99497.03
2023-01-13T23:51:31.645Z,99501.38
2023-01-13T23:53:59.758Z,99494.41
2023-01-13T23:56:31.381Z,99499.66
2023-01-13T23:58:59.263Z,99498.94
